createdAt,value
2018-12-22T00:00:09.684Z,11.36
2018-12-22T00:01:09.676Z,11.25
2018-12-22T00:02:09.667Z,11.32
2018-12-22T00:03:09.673Z,11.28
2018-12-22T00:04:09.643Z,11.29
2018-12-22T00:05:09.635Z,11.32
2018-12-22T00:06:09.628Z,11.18
2018-12-22T00:07:09.876Z,11.14
2018-12-22T00:08:09.608Z,11.19
2018-12-22T00:09:09.599Z,11.17
2018-12-22T00:10:09.589Z,11.1
2018-12-22T00:11:09.580Z,11.07
2018-12-22T00:12:09.571Z,11.07
2018-12-22T00:13:09.563Z,11.06
2018-12-22T00:14:09.555Z,10.99
2018-12-22T00:15:09.646Z,10.94
2018-12-22T00:16:09.627Z,10.89
2018-12-22T00:17:09.527Z,10.86
2018-12-22T00:18:09.514Z,10.86
2018-12-22T00:19:09.503Z,10.84
2018-12-22T00:20:09.496Z,10.78
2018-12-22T00:21:09.488Z,10.82
2018-12-22T00:22:09.478Z,10.74
2018-12-22T00:23:09.472Z,10.79
2018-12-22T00:24:09.460Z,10.7
2018-12-22T00:25:09.445Z,10.66
2018-12-22T00:26:09.436Z,10.68
2018-12-22T00:27:09.425Z,10.64
2018-12-22T00:28:09.425Z,10.66
2018-12-22T00:29:09.408Z,10.63
2018-12-22T00:30:09.401Z,10.52
2018-12-22T00:31:09.390Z,10.59
2018-12-22T00:32:09.377Z,10.55
2018-12-22T00:33:09.369Z,10.53
2018-12-22T00:34:09.360Z,10.53
2018-12-22T00:35:09.353Z,10.48
2018-12-22T00:36:09.421Z,10.44
2018-12-22T00:37:09.367Z,10.41
2018-12-22T00:38:09.618Z,10.47
2018-12-22T00:39:09.314Z,10.41
2018-12-22T00:40:09.303Z,10.4
2018-12-22T00:41:09.289Z,10.27
2018-12-22T00:42:09.281Z,10.34
2018-12-22T00:43:09.282Z,10.26
2018-12-22T00:44:09.268Z,10.34
2018-12-22T00:45:09.249Z,10.26
2018-12-22T00:46:09.242Z,10.17
2018-12-22T00:47:09.234Z,10.25
2018-12-22T00:48:09.221Z,10.25
2018-12-22T00:49:09.325Z,10.2
2018-12-22T00:50:09.274Z,10.25
2018-12-22T00:51:09.191Z,10.26
2018-12-22T00:52:09.185Z,10.23
2018-12-22T00:53:09.175Z,10.32
2018-12-22T00:54:09.167Z,10.3
2018-12-22T00:55:09.154Z,10.23
2018-12-22T00:56:09.144Z,10.32
2018-12-22T00:57:09.135Z,10.22
2018-12-22T00:58:09.127Z,10.18
2018-12-22T00:59:09.107Z,10.23
2018-12-22T01:00:09.100Z,10.12
2018-12-22T01:01:09.092Z,10.09
2018-12-22T01:02:09.167Z,10.12
2018-12-22T01:03:09.070Z,10.11
2018-12-22T01:04:09.063Z,9.94
2018-12-22T01:05:09.055Z,10.02
2018-12-22T01:06:09.039Z,9.99
2018-12-22T01:07:09.037Z,9.91
2018-12-22T01:08:09.022Z,9.89
2018-12-22T01:09:09.363Z,9.87
2018-12-22T01:10:08.997Z,9.83
2018-12-22T01:11:08.988Z,9.76
2018-12-22T01:12:08.986Z,9.86
2018-12-22T01:13:08.971Z,9.79
2018-12-22T01:14:08.959Z,9.79
2018-12-22T01:15:08.951Z,9.72
2018-12-22T01:16:08.938Z,9.72
2018-12-22T01:17:08.927Z,9.66
2018-12-22T01:18:08.916Z,9.66
2018-12-22T01:19:08.903Z,9.69
2018-12-22T01:20:08.894Z,9.72
2018-12-22T01:21:08.883Z,9.71
2018-12-22T01:22:08.883Z,9.66
2018-12-22T01:23:08.864Z,9.72
2018-12-22T01:24:08.850Z,9.78
2018-12-22T01:25:08.840Z,9.83
2018-12-22T01:26:08.832Z,9.83
2018-12-22T01:27:08.827Z,9.93
2018-12-22T01:28:08.812Z,9.86
2018-12-22T01:29:08.800Z,9.9
2018-12-22T01:30:08.800Z,9.91
2018-12-22T01:31:08.790Z,9.94
2018-12-22T01:32:08.767Z,10.02
2018-12-22T01:33:08.759Z,9.97
2018-12-22T01:34:08.751Z,9.97
2018-12-22T01:35:08.735Z,10.09
2018-12-22T01:36:08.729Z,10.12
2018-12-22T01:37:08.716Z,10.07
2018-12-22T01:38:08.703Z,10.17
2018-12-22T01:39:08.705Z,10.2
2018-12-22T01:40:08.934Z,10.23
2018-12-22T01:41:08.677Z,10.27
2018-12-22T01:42:08.665Z,10.2
2018-12-22T01:43:08.655Z,10.32
2018-12-22T01:44:08.641Z,10.32
2018-12-22T01:45:08.640Z,10.32
2018-12-22T01:46:08.627Z,10.3
2018-12-22T01:47:08.616Z,10.23
2018-12-22T01:48:08.598Z,10.32
2018-12-22T01:49:08.589Z,10.26
2018-12-22T01:50:08.580Z,10.34
2018-12-22T01:51:08.569Z,10.22
2018-12-22T01:52:08.562Z,10.22
2018-12-22T01:53:08.548Z,10.23
2018-12-22T01:54:08.541Z,10.18
2018-12-22T01:55:08.535Z,10.27
2018-12-22T01:56:08.520Z,10.25
2018-12-22T01:57:08.508Z,10.22
2018-12-22T01:58:08.496Z,10.29
2018-12-22T01:59:08.486Z,10.32
2018-12-22T02:00:08.482Z,10.27
2018-12-22T02:01:08.511Z,10.27
2018-12-22T02:02:08.457Z,10.32
2018-12-22T02:03:08.445Z,10.26
2018-12-22T02:04:08.440Z,10.3
2018-12-22T02:05:08.481Z,10.29
2018-12-22T02:06:08.414Z,10.41
2018-12-22T02:07:08.405Z,10.29
2018-12-22T02:08:08.156Z,10.33
2018-12-22T02:09:08.391Z,10.32
2018-12-22T02:10:08.377Z,10.33
2018-12-22T02:11:08.366Z,10.32
2018-12-22T02:12:08.353Z,10.32
2018-12-22T02:13:08.341Z,10.41
2018-12-22T02:14:08.333Z,10.26
2018-12-22T02:15:08.406Z,10.3
2018-12-22T02:16:08.327Z,10.26
2018-12-22T02:17:08.303Z,10.18
2018-12-22T02:18:08.292Z,10.17
2018-12-22T02:19:08.281Z,10.11
2018-12-22T02:20:08.271Z,10.11
2018-12-22T02:21:08.262Z,10.07
2018-12-22T02:22:08.253Z,9.96
2018-12-22T02:23:08.239Z,10.02
2018-12-22T02:24:08.230Z,9.99
2018-12-22T02:25:08.220Z,10.05
2018-12-22T02:26:08.209Z,9.99
2018-12-22T02:27:08.200Z,10.05
2018-12-22T02:28:08.190Z,9.91
2018-12-22T02:29:08.182Z,10.01
2018-12-22T02:30:08.187Z,10.01
2018-12-22T02:31:08.179Z,9.96
2018-12-22T02:32:08.161Z,10.02
2018-12-22T02:33:08.156Z,9.97
2018-12-22T02:34:08.133Z,10.02
2018-12-22T02:35:08.134Z,9.94
2018-12-22T02:36:08.110Z,9.96
2018-12-22T02:37:08.103Z,9.94
2018-12-22T02:38:08.087Z,9.97
2018-12-22T02:39:08.075Z,9.99
2018-12-22T02:40:08.064Z,9.93
2018-12-22T02:41:08.060Z,9.91
2018-12-22T02:42:08.050Z,9.86
2018-12-22T02:43:08.050Z,9.84
2018-12-22T02:44:08.032Z,9.81
2018-12-22T02:45:08.083Z,9.79
2018-12-22T02:46:08.015Z,9.78
2018-12-22T02:47:07.992Z,9.76
2018-12-22T02:48:07.983Z,9.68
2018-12-22T02:49:07.972Z,9.69
2018-12-22T02:50:07.972Z,9.64
2018-12-22T02:51:07.948Z,9.54
2018-12-22T02:52:07.938Z,9.57
2018-12-22T02:53:07.944Z,9.48
2018-12-22T02:54:07.916Z,9.51
2018-12-22T02:55:07.921Z,9.4
2018-12-22T02:56:07.897Z,9.51
2018-12-22T02:57:07.887Z,9.53
2018-12-22T02:58:07.882Z,9.48
2018-12-22T02:59:11.160Z,9.5
2018-12-22T03:00:07.864Z,9.53
2018-12-22T03:01:07.855Z,9.47
2018-12-22T03:02:07.833Z,9.4
2018-12-22T03:03:07.829Z,9.39
2018-12-22T03:04:07.815Z,9.46
2018-12-22T03:05:07.804Z,9.39
2018-12-22T03:06:07.795Z,9.35
2018-12-22T03:07:07.786Z,9.36
2018-12-22T03:08:07.774Z,9.32
2018-12-22T03:09:07.768Z,9.35
2018-12-22T03:10:07.756Z,9.32
2018-12-22T03:11:07.743Z,9.31
2018-12-22T03:12:07.741Z,9.24
2018-12-22T03:13:07.722Z,9.36
2018-12-22T03:14:07.966Z,9.33
2018-12-22T03:15:07.695Z,9.35
2018-12-22T03:16:07.686Z,9.33
2018-12-22T03:17:07.670Z,9.39
2018-12-22T03:18:07.663Z,9.42
2018-12-22T03:19:07.654Z,9.43
2018-12-22T03:20:07.647Z,9.47
2018-12-22T03:21:07.631Z,9.48
2018-12-22T03:22:07.617Z,9.48
2018-12-22T03:23:07.606Z,9.47
2018-12-22T03:24:07.603Z,9.47
2018-12-22T03:25:07.692Z,9.4
2018-12-22T03:26:07.577Z,9.51
2018-12-22T03:27:07.569Z,9.5
2018-12-22T03:28:07.557Z,9.46
2018-12-22T03:29:15.378Z,9.46
2018-12-22T03:30:07.541Z,9.5
2018-12-22T03:31:07.540Z,9.46
2018-12-22T03:32:07.539Z,9.54
2018-12-22T03:33:07.510Z,9.46
2018-12-22T03:34:07.487Z,9.53
2018-12-22T03:35:07.487Z,9.53
2018-12-22T03:36:07.468Z,9.65
2018-12-22T03:37:07.455Z,9.61
2018-12-22T03:38:07.447Z,9.61
2018-12-22T03:39:07.445Z,9.58
2018-12-22T03:40:07.433Z,9.64
2018-12-22T03:41:07.417Z,9.71
2018-12-22T03:42:07.422Z,9.72
2018-12-22T03:43:07.390Z,9.65
2018-12-22T03:44:07.381Z,9.68
2018-12-22T03:45:07.734Z,9.68
2018-12-22T03:46:07.360Z,9.83
2018-12-22T03:47:07.352Z,9.76
2018-12-22T03:48:07.344Z,9.79
2018-12-22T03:49:07.328Z,9.79
2018-12-22T03:50:07.315Z,9.79
2018-12-22T03:51:07.320Z,9.79
2018-12-22T03:52:07.296Z,9.79
2018-12-22T03:53:07.297Z,9.83
2018-12-22T03:54:07.276Z,9.78
2018-12-22T03:55:07.267Z,9.87
2018-12-22T03:56:07.259Z,9.83
2018-12-22T03:57:07.334Z,9.83
2018-12-22T03:58:07.232Z,9.76
2018-12-22T03:59:07.218Z,9.76
2018-12-22T04:00:07.217Z,9.78
2018-12-22T04:01:07.208Z,9.76
2018-12-22T04:02:07.186Z,9.79
2018-12-22T04:03:07.187Z,9.76
2018-12-22T04:04:07.165Z,9.78
2018-12-22T04:05:07.168Z,9.79
2018-12-22T04:06:07.141Z,9.81
2018-12-22T04:07:07.135Z,9.84
2018-12-22T04:08:07.139Z,9.87
2018-12-22T04:09:08.959Z,9.83
2018-12-22T04:10:06.859Z,9.87
2018-12-22T04:11:07.094Z,9.89
2018-12-22T04:12:07.093Z,9.76
2018-12-22T04:13:07.073Z,9.81
2018-12-22T04:14:07.065Z,9.83
2018-12-22T04:15:07.047Z,9.81
2018-12-22T04:16:07.303Z,9.81
2018-12-22T04:17:07.041Z,9.81
2018-12-22T04:18:07.019Z,9.89
2018-12-22T04:19:07.023Z,9.83
2018-12-22T04:20:06.994Z,9.81
2018-12-22T04:21:06.983Z,9.83
2018-12-22T04:22:06.985Z,9.78
2018-12-22T04:23:06.964Z,9.75
2018-12-22T04:24:06.954Z,9.78
2018-12-22T04:25:06.961Z,9.71
2018-12-22T04:26:06.933Z,9.72
2018-12-22T04:27:06.914Z,9.69
2018-12-22T04:28:06.908Z,9.75
2018-12-22T04:29:06.791Z,9.76
2018-12-22T04:30:06.660Z,9.68
2018-12-22T04:31:06.881Z,9.71
2018-12-22T04:32:06.630Z,9.79
2018-12-22T04:33:06.861Z,9.66
2018-12-22T04:34:06.849Z,9.84
2018-12-22T04:35:06.844Z,9.86
2018-12-22T04:36:06.833Z,9.76
2018-12-22T04:37:06.821Z,9.76
2018-12-22T04:38:06.821Z,9.83
2018-12-22T04:39:06.797Z,9.76
2018-12-22T04:40:06.790Z,9.83
2018-12-22T04:41:06.772Z,9.79
2018-12-22T04:42:06.764Z,9.79
2018-12-22T04:43:06.761Z,9.79
2018-12-22T04:44:06.742Z,9.81
2018-12-22T04:45:06.739Z,9.72
2018-12-22T04:46:06.724Z,9.75
2018-12-22T04:47:06.961Z,9.75
2018-12-22T04:48:06.709Z,9.71
2018-12-22T04:49:06.693Z,9.81
2018-12-22T04:50:06.697Z,9.78
2018-12-22T04:51:06.666Z,9.78
2018-12-22T04:52:06.665Z,9.74
2018-12-22T04:53:06.672Z,9.79
2018-12-22T04:54:06.388Z,9.68
2018-12-22T04:55:06.635Z,9.76
2018-12-22T04:56:06.621Z,9.71
2018-12-22T04:57:06.599Z,9.76
2018-12-22T04:58:06.592Z,9.76
2018-12-22T04:59:06.711Z,9.81
2018-12-22T05:00:06.577Z,9.86
2018-12-22T05:01:06.557Z,9.78
2018-12-22T05:02:06.559Z,9.66
2018-12-22T05:03:06.539Z,9.78
2018-12-22T05:04:06.530Z,9.78
2018-12-22T05:05:06.513Z,9.66
2018-12-22T05:06:06.535Z,9.68
2018-12-22T05:07:06.498Z,9.68
2018-12-22T05:08:06.491Z,9.71
2018-12-22T05:09:06.477Z,9.71
2018-12-22T05:10:06.460Z,9.68
2018-12-22T05:11:06.459Z,9.76
2018-12-22T05:12:06.449Z,9.78
2018-12-22T05:13:06.431Z,9.76
2018-12-22T05:14:06.439Z,9.76
2018-12-22T05:15:06.427Z,9.68
2018-12-22T05:16:06.401Z,9.68
2018-12-22T05:17:06.393Z,9.78
2018-12-22T05:18:06.376Z,9.72
2018-12-22T05:19:06.363Z,9.71
2018-12-22T05:20:06.361Z,9.68
2018-12-22T05:21:06.348Z,9.69
2018-12-22T05:22:06.336Z,9.76
2018-12-22T05:23:06.328Z,9.75
2018-12-22T05:24:06.314Z,9.71
2018-12-22T05:25:06.318Z,9.72
2018-12-22T05:26:06.294Z,9.75
2018-12-22T05:27:06.280Z,9.72
2018-12-22T05:28:06.270Z,9.79
2018-12-22T05:29:06.258Z,9.78
2018-12-22T05:30:06.252Z,9.71
2018-12-22T05:31:06.237Z,9.79
2018-12-22T05:32:06.275Z,9.72
2018-12-22T05:33:06.215Z,9.72
2018-12-22T05:34:06.314Z,9.72
2018-12-22T05:35:06.213Z,9.79
2018-12-22T05:36:06.185Z,9.72
2018-12-22T05:37:06.178Z,9.71
2018-12-22T05:38:06.166Z,9.72
2018-12-22T05:39:06.154Z,9.69
2018-12-22T05:40:06.143Z,9.68
2018-12-22T05:41:06.130Z,9.69
2018-12-22T05:42:06.131Z,9.72
2018-12-22T05:43:06.117Z,9.76
2018-12-22T05:44:06.106Z,9.81
2018-12-22T05:45:06.087Z,9.68
2018-12-22T05:46:06.076Z,9.72
2018-12-22T05:47:06.071Z,9.71
2018-12-22T05:48:06.065Z,9.71
2018-12-22T05:49:06.050Z,9.76
2018-12-22T05:50:06.039Z,9.68
2018-12-22T05:51:06.024Z,9.68
2018-12-22T05:52:06.014Z,9.65
2018-12-22T05:53:06.002Z,9.6
2018-12-22T05:54:05.994Z,9.65
2018-12-22T05:55:05.986Z,9.61
2018-12-22T05:56:05.974Z,9.65
2018-12-22T05:57:05.961Z,9.66
2018-12-22T05:58:05.954Z,9.69
2018-12-22T05:59:05.941Z,9.64
2018-12-22T06:00:05.934Z,9.65
2018-12-22T06:01:05.919Z,9.69
2018-12-22T06:02:05.974Z,9.65
2018-12-22T06:03:05.896Z,9.66
2018-12-22T06:04:05.888Z,9.61
2018-12-22T06:05:05.877Z,9.57
2018-12-22T06:06:05.868Z,9.57
2018-12-22T06:07:05.854Z,9.61
2018-12-22T06:08:05.849Z,9.61
2018-12-22T06:09:05.834Z,9.58
2018-12-22T06:10:05.822Z,9.57
2018-12-22T06:11:05.882Z,9.61
2018-12-22T06:12:05.816Z,9.58
2018-12-22T06:13:05.799Z,9.61
2018-12-22T06:14:05.794Z,9.51
2018-12-22T06:15:05.781Z,9.54
2018-12-22T06:16:05.761Z,9.48
2018-12-22T06:17:05.747Z,9.53
2018-12-22T06:18:05.738Z,9.47
2018-12-22T06:19:05.734Z,9.54
2018-12-22T06:20:05.714Z,9.53
2018-12-22T06:21:05.969Z,9.51
2018-12-22T06:22:05.705Z,9.54
2018-12-22T06:23:05.684Z,9.43
2018-12-22T06:24:05.676Z,9.46
2018-12-22T06:25:05.668Z,9.56
2018-12-22T06:26:05.656Z,9.47
2018-12-22T06:27:05.640Z,9.46
2018-12-22T06:28:05.631Z,9.42
2018-12-22T06:29:05.622Z,9.39
2018-12-22T06:30:13.840Z,9.4
2018-12-22T06:31:05.602Z,9.47
2018-12-22T06:32:05.591Z,9.4
2018-12-22T06:33:05.579Z,9.35
2018-12-22T06:34:05.567Z,9.47
2018-12-22T06:35:05.556Z,9.42
2018-12-22T06:36:05.542Z,9.42
2018-12-22T06:37:05.534Z,9.47
2018-12-22T06:38:05.560Z,9.42
2018-12-22T06:39:05.522Z,9.47
2018-12-22T06:40:05.620Z,9.43
2018-12-22T06:41:05.492Z,9.48
2018-12-22T06:42:05.485Z,9.51
2018-12-22T06:43:05.469Z,9.39
2018-12-22T06:44:05.458Z,9.5
2018-12-22T06:45:05.457Z,9.46
2018-12-22T06:46:05.439Z,9.43
2018-12-22T06:47:05.426Z,9.43
2018-12-22T06:48:05.422Z,9.43
2018-12-22T06:49:05.486Z,9.48
2018-12-22T06:50:05.397Z,9.51
2018-12-22T06:51:05.384Z,9.48
2018-12-22T06:52:05.629Z,9.43
2018-12-22T06:53:05.361Z,9.38
2018-12-22T06:54:05.356Z,9.42
2018-12-22T06:55:05.100Z,9.47
2018-12-22T06:56:05.335Z,9.42
2018-12-22T06:57:05.332Z,9.47
2018-12-22T06:58:05.306Z,9.4
2018-12-22T06:59:05.294Z,9.4
2018-12-22T07:00:05.307Z,9.46
2018-12-22T07:01:05.280Z,9.47
2018-12-22T07:02:05.264Z,9.42
2018-12-22T07:03:05.253Z,9.43
2018-12-22T07:04:05.250Z,9.39
2018-12-22T07:05:07.308Z,9.33
2018-12-22T07:06:05.223Z,9.43
2018-12-22T07:07:05.211Z,9.39
2018-12-22T07:08:05.198Z,9.42
2018-12-22T07:09:05.188Z,9.36
2018-12-22T07:10:05.401Z,9.46
2018-12-22T07:11:05.173Z,9.42
2018-12-22T07:12:05.194Z,9.46
2018-12-22T07:13:05.445Z,9.38
2018-12-22T07:14:05.137Z,9.46
2018-12-22T07:15:05.128Z,9.46
2018-12-22T07:16:07.346Z,9.48
2018-12-22T07:17:05.103Z,9.39
2018-12-22T07:18:05.090Z,9.47
2018-12-22T07:19:05.077Z,9.5
2018-12-22T07:20:05.177Z,9.51
2018-12-22T07:21:05.056Z,9.47
2018-12-22T07:22:05.054Z,9.47
2018-12-22T07:23:05.287Z,9.47
2018-12-22T07:24:04.784Z,9.47
2018-12-22T07:25:05.022Z,9.35
2018-12-22T07:26:05.003Z,9.51
2018-12-22T07:27:04.993Z,9.39
2018-12-22T07:28:04.985Z,9.47
2018-12-22T07:29:04.971Z,9.43
2018-12-22T07:30:04.960Z,9.48
2018-12-22T07:31:04.968Z,9.4
2018-12-22T07:32:04.939Z,9.39
2018-12-22T07:33:04.930Z,9.43
2018-12-22T07:34:04.915Z,9.46
2018-12-22T07:35:05.039Z,9.42
2018-12-22T07:36:04.899Z,9.4
2018-12-22T07:37:04.886Z,9.32
2018-12-22T07:38:04.878Z,9.32
2018-12-22T07:39:04.866Z,9.28
2018-12-22T07:40:05.045Z,9.21
2018-12-22T07:41:04.844Z,9.28
2018-12-22T07:42:04.832Z,9.21
2018-12-22T07:43:04.823Z,9.14
2018-12-22T07:44:04.819Z,9.14
2018-12-22T07:45:04.800Z,9.02
2018-12-22T07:46:04.793Z,9.02
2018-12-22T07:47:04.783Z,9.01
2018-12-22T07:48:04.769Z,9.01
2018-12-22T07:49:04.757Z,9.04
2018-12-22T07:50:04.745Z,9.04
2018-12-22T07:51:04.736Z,9.02
2018-12-22T07:52:04.723Z,8.98
2018-12-22T07:53:04.710Z,8.98
2018-12-22T07:54:04.952Z,9.1
2018-12-22T07:55:04.692Z,9.05
2018-12-22T07:56:04.680Z,9.02
2018-12-22T07:57:04.667Z,9.02
2018-12-22T07:58:04.664Z,8.95
2018-12-22T07:59:04.650Z,9.02
2018-12-22T08:00:04.636Z,9.05
2018-12-22T08:01:04.627Z,9.04
2018-12-22T08:02:04.619Z,9.14
2018-12-22T08:03:04.625Z,9.23
2018-12-22T08:04:04.590Z,9.24
2018-12-22T08:05:04.657Z,9.21
2018-12-22T08:06:04.571Z,9.21
2018-12-22T08:07:04.561Z,9.28
2018-12-22T08:08:04.546Z,9.21
2018-12-22T08:09:04.539Z,9.35
2018-12-22T08:10:04.532Z,9.31
2018-12-22T08:11:04.520Z,9.32
2018-12-22T08:12:04.524Z,9.32
2018-12-22T08:13:04.492Z,9.35
2018-12-22T08:14:04.484Z,9.29
2018-12-22T08:15:04.231Z,9.24
2018-12-22T08:16:04.472Z,9.31
2018-12-22T08:17:04.448Z,9.33
2018-12-22T08:18:04.450Z,9.29
2018-12-22T08:19:04.550Z,9.29
2018-12-22T08:20:04.413Z,9.28
2018-12-22T08:21:04.406Z,9.29
2018-12-22T08:22:04.392Z,9.35
2018-12-22T08:23:04.388Z,9.35
2018-12-22T08:24:04.370Z,9.43
2018-12-22T08:25:04.373Z,9.29
2018-12-22T08:26:04.349Z,9.32
2018-12-22T08:27:04.346Z,9.4
2018-12-22T08:28:04.087Z,9.36
2018-12-22T08:29:04.316Z,9.4
2018-12-22T08:30:04.309Z,9.4
2018-12-22T08:31:04.299Z,9.32
2018-12-22T08:32:04.284Z,9.4
2018-12-22T08:33:04.275Z,9.43
2018-12-22T08:34:04.267Z,9.38
2018-12-22T08:35:04.257Z,9.43
2018-12-22T08:36:04.257Z,9.48
2018-12-22T08:37:04.233Z,9.48
2018-12-22T08:38:04.232Z,9.61
2018-12-22T08:39:04.213Z,9.64
2018-12-22T08:40:04.206Z,9.64
2018-12-22T08:41:04.255Z,9.61
2018-12-22T08:42:04.186Z,9.64
2018-12-22T08:43:04.169Z,9.66
2018-12-22T08:44:03.917Z,9.71
2018-12-22T08:45:04.147Z,9.66
2018-12-22T08:46:04.141Z,9.84
2018-12-22T08:47:04.128Z,9.83
2018-12-22T08:48:04.115Z,9.89
2018-12-22T08:49:04.104Z,9.81
2018-12-22T08:50:11.724Z,9.86
2018-12-22T08:51:05.204Z,9.91
2018-12-22T08:52:04.077Z,9.9
2018-12-22T08:53:04.068Z,10.02
2018-12-22T08:54:04.054Z,9.96
2018-12-22T08:55:04.044Z,10.02
2018-12-22T08:56:04.037Z,9.96
2018-12-22T08:57:04.022Z,10.02
2018-12-22T08:58:04.014Z,10.11
2018-12-22T08:59:04.013Z,10.04
2018-12-22T09:00:03.991Z,9.97
2018-12-22T09:01:03.984Z,10.07
2018-12-22T09:02:03.975Z,10.08
2018-12-22T09:03:03.962Z,10.22
2018-12-22T09:04:03.952Z,10.17
2018-12-22T09:05:03.947Z,10.26
2018-12-22T09:06:03.933Z,10.25
2018-12-22T09:07:03.917Z,10.25
2018-12-22T09:08:03.912Z,10.22
2018-12-22T09:09:03.896Z,10.29
2018-12-22T09:10:03.931Z,10.33
2018-12-22T09:11:03.878Z,10.32
2018-12-22T09:12:03.875Z,10.32
2018-12-22T09:13:03.858Z,10.34
2018-12-22T09:14:03.846Z,10.33
2018-12-22T09:15:03.839Z,10.3
2018-12-22T09:16:03.830Z,10.34
2018-12-22T09:17:03.817Z,10.3
2018-12-22T09:18:03.809Z,10.38
2018-12-22T09:19:03.801Z,10.42
2018-12-22T09:20:03.788Z,10.36
2018-12-22T09:21:03.780Z,10.33
2018-12-22T09:22:03.773Z,10.33
2018-12-22T09:23:03.763Z,10.27
2018-12-22T09:24:03.753Z,10.3
2018-12-22T09:25:03.741Z,10.32
2018-12-22T09:26:03.739Z,10.26
2018-12-22T09:27:03.717Z,10.33
2018-12-22T09:28:03.709Z,10.3
2018-12-22T09:29:03.697Z,10.22
2018-12-22T09:30:03.706Z,10.17
2018-12-22T09:31:05.858Z,10.23
2018-12-22T09:32:03.671Z,10.26
2018-12-22T09:33:03.662Z,10.22
2018-12-22T09:34:03.650Z,10.29
2018-12-22T09:35:03.641Z,10.23
2018-12-22T09:36:03.630Z,10.27
2018-12-22T09:37:03.623Z,10.36
2018-12-22T09:38:03.619Z,10.27
2018-12-22T09:39:03.606Z,10.3
2018-12-22T09:40:03.608Z,10.3
2018-12-22T09:41:03.586Z,10.2
2018-12-22T09:42:03.568Z,10.23
2018-12-22T09:43:03.567Z,10.2
2018-12-22T09:44:03.548Z,10.18
2018-12-22T09:45:03.538Z,10.23
2018-12-22T09:46:03.528Z,10.09
2018-12-22T09:47:03.522Z,10.07
2018-12-22T09:48:03.519Z,10.2
2018-12-22T09:49:03.507Z,10.09
2018-12-22T09:50:03.568Z,10.12
2018-12-22T09:51:03.479Z,10.11
2018-12-22T09:52:03.468Z,10.11
2018-12-22T09:53:06.487Z,10.08
2018-12-22T09:54:03.514Z,10.08
2018-12-22T09:55:03.444Z,10.07
2018-12-22T09:56:03.427Z,10.05
2018-12-22T09:57:03.417Z,10.07
2018-12-22T09:58:03.412Z,10.01
2018-12-22T09:59:03.643Z,10.12
2018-12-22T10:00:03.384Z,10.08
2018-12-22T10:01:11.624Z,10.11
2018-12-22T10:02:03.365Z,10.09
2018-12-22T10:03:03.354Z,10.14
2018-12-22T10:04:03.349Z,10.12
2018-12-22T10:05:03.332Z,10.08
2018-12-22T10:06:03.325Z,10.08
2018-12-22T10:07:03.318Z,10.11
2018-12-22T10:08:03.310Z,10.15
2018-12-22T10:09:03.295Z,10.09
2018-12-22T10:10:03.284Z,10.08
2018-12-22T10:11:03.271Z,10.11
2018-12-22T10:12:03.264Z,10.08
2018-12-22T10:13:03.252Z,10.08
2018-12-22T10:14:03.241Z,10.09
2018-12-22T10:15:03.233Z,10.09
2018-12-22T10:16:03.224Z,10.11
2018-12-22T10:17:04.893Z,10.2
2018-12-22T10:18:03.210Z,10.2
2018-12-22T10:19:03.196Z,10.25
2018-12-22T10:20:03.181Z,10.25
2018-12-22T10:21:03.172Z,10.3
2018-12-22T10:22:03.161Z,10.26
2018-12-22T10:23:03.154Z,10.32
2018-12-22T10:24:03.148Z,10.29
2018-12-22T10:25:03.267Z,10.29
2018-12-22T10:26:03.132Z,10.29
2018-12-22T10:27:03.116Z,10.32
2018-12-22T10:28:03.106Z,10.3
2018-12-22T10:29:03.092Z,10.4
2018-12-22T10:30:03.331Z,10.29
2018-12-22T10:31:03.071Z,10.32
2018-12-22T10:32:03.063Z,10.34
2018-12-22T10:33:03.048Z,10.3
2018-12-22T10:34:03.046Z,10.38
2018-12-22T10:35:03.030Z,10.33
2018-12-22T10:36:03.024Z,10.36
2018-12-22T10:37:03.010Z,10.34
2018-12-22T10:38:03.002Z,10.33
2018-12-22T10:39:02.995Z,10.32
2018-12-22T10:40:02.986Z,10.38
2018-12-22T10:41:02.971Z,10.36
2018-12-22T10:42:02.718Z,10.3
2018-12-22T10:43:02.712Z,10.34
2018-12-22T10:44:02.948Z,10.22
2018-12-22T10:45:02.936Z,10.22
2018-12-22T10:46:02.925Z,10.18
2018-12-22T10:47:02.911Z,10.29
2018-12-22T10:48:02.904Z,10.23
2018-12-22T10:49:02.893Z,10.18
2018-12-22T10:50:02.883Z,10.23
2018-12-22T10:51:02.872Z,10.2
2018-12-22T10:52:02.862Z,10.23
2018-12-22T10:53:02.850Z,10.12
2018-12-22T10:54:02.843Z,10.09
2018-12-22T10:55:02.833Z,10.09
2018-12-22T10:56:02.828Z,10.11
2018-12-22T10:57:04.075Z,9.96
2018-12-22T10:58:04.802Z,9.87
2018-12-22T10:59:02.792Z,9.81
2018-12-22T11:00:02.781Z,9.74
2018-12-22T11:01:03.025Z,9.64
2018-12-22T11:02:02.760Z,9.53
2018-12-22T11:03:02.753Z,9.42
2018-12-22T11:04:02.742Z,9.43
2018-12-22T11:05:02.738Z,9.46
2018-12-22T11:06:02.724Z,9.43
2018-12-22T11:07:02.709Z,9.36
2018-12-22T11:08:02.702Z,9.32
2018-12-22T11:09:02.688Z,9.24
2018-12-22T11:10:02.685Z,9.31
2018-12-22T11:11:02.677Z,9.28
2018-12-22T11:12:02.657Z,9.21
2018-12-22T11:13:02.756Z,9.24
2018-12-22T11:14:02.635Z,9.04
2018-12-22T11:15:02.627Z,9.11
2018-12-22T11:16:02.611Z,8.99
2018-12-22T11:17:02.608Z,9.04
2018-12-22T11:18:02.591Z,8.96
2018-12-22T11:19:02.587Z,8.95
2018-12-22T11:20:02.646Z,8.86
2018-12-22T11:21:02.558Z,8.86
2018-12-22T11:22:02.551Z,8.92
2018-12-22T11:23:02.538Z,8.84
2018-12-22T11:24:02.961Z,8.91
2018-12-22T11:25:02.623Z,8.87
2018-12-22T11:26:02.514Z,8.95
2018-12-22T11:27:02.496Z,8.89
2018-12-22T11:28:02.488Z,8.95
2018-12-22T11:29:02.476Z,8.96
2018-12-22T11:30:02.417Z,8.98
2018-12-22T11:31:02.452Z,8.98
2018-12-22T11:32:02.690Z,9.02
2018-12-22T11:33:03.398Z,9.08
2018-12-22T11:34:02.424Z,9.08
2018-12-22T11:35:02.528Z,9.04
2018-12-22T11:36:02.397Z,8.98
2018-12-22T11:37:02.472Z,9.04
2018-12-22T11:38:02.378Z,8.99
2018-12-22T11:39:02.361Z,9.05
2018-12-22T11:40:02.357Z,9.04
2018-12-22T11:41:02.347Z,8.99
2018-12-22T11:42:02.336Z,9.04
2018-12-22T11:43:02.322Z,9.01
2018-12-22T11:44:02.310Z,8.99
2018-12-22T11:45:02.300Z,8.98
2018-12-22T11:46:02.286Z,9.11
2018-12-22T11:47:02.279Z,9.01
2018-12-22T11:48:02.366Z,9.02
2018-12-22T11:49:02.255Z,9.08
2018-12-22T11:50:02.245Z,9.05
2018-12-22T11:51:02.234Z,9.17
2018-12-22T11:52:02.224Z,9.23
2018-12-22T11:53:02.216Z,9.26
2018-12-22T11:54:02.204Z,9.29
2018-12-22T11:55:02.192Z,9.28
2018-12-22T11:56:02.180Z,9.29
2018-12-22T11:57:02.172Z,9.31
2018-12-22T11:58:02.158Z,9.38
2018-12-22T11:59:02.169Z,9.43
2018-12-22T12:00:02.137Z,9.43
2018-12-22T12:01:02.236Z,9.42
2018-12-22T12:02:09.431Z,9.53
2018-12-22T12:03:02.111Z,9.5
2018-12-22T12:04:02.100Z,9.54
2018-12-22T12:05:02.093Z,9.5
2018-12-22T12:06:02.074Z,9.56
2018-12-22T12:07:02.066Z,9.61
2018-12-22T12:08:02.053Z,9.5
2018-12-22T12:09:02.042Z,9.5
2018-12-22T12:10:02.033Z,9.56
2018-12-22T12:11:02.976Z,9.5
2018-12-22T12:12:02.013Z,9.58
2018-12-22T12:13:02.002Z,9.57
2018-12-22T12:14:01.996Z,9.65
2018-12-22T12:15:01.979Z,9.68
2018-12-22T12:16:02.018Z,9.64
2018-12-22T12:17:01.963Z,9.72
2018-12-22T12:18:01.971Z,9.68
2018-12-22T12:19:01.943Z,9.76
2018-12-22T12:20:01.961Z,9.75
2018-12-22T12:21:01.925Z,9.76
2018-12-22T12:22:01.918Z,9.79
2018-12-22T12:23:01.899Z,9.75
2018-12-22T12:24:02.956Z,9.81
2018-12-22T12:25:01.884Z,9.78
2018-12-22T12:26:01.871Z,9.86
2018-12-22T12:27:01.862Z,9.81
2018-12-22T12:28:01.849Z,9.84
2018-12-22T12:29:01.840Z,9.76
2018-12-22T12:30:01.829Z,9.78
2018-12-22T12:31:01.826Z,9.72
2018-12-22T12:32:01.809Z,9.68
2018-12-22T12:33:01.801Z,9.69
2018-12-22T12:34:01.794Z,9.75
2018-12-22T12:35:01.781Z,9.72
2018-12-22T12:36:01.776Z,9.68
2018-12-22T12:37:01.755Z,9.72
2018-12-22T12:38:01.755Z,9.68
2018-12-22T12:39:01.739Z,9.69
2018-12-22T12:40:01.731Z,9.69
2018-12-22T12:41:01.716Z,9.65
2018-12-22T12:42:01.710Z,9.46
2018-12-22T12:43:01.703Z,9.5
2018-12-22T12:44:01.695Z,9.48
2018-12-22T12:45:01.748Z,9.43
2018-12-22T12:46:01.668Z,9.33
2018-12-22T12:47:01.657Z,9.31
2018-12-22T12:48:01.649Z,9.28
2018-12-22T12:49:01.640Z,9.17
2018-12-22T12:50:01.626Z,9.15
2018-12-22T12:51:01.613Z,9.18
2018-12-22T12:52:01.605Z,9.04
2018-12-22T12:53:09.379Z,9.1
2018-12-22T12:54:01.583Z,9.05
2018-12-22T12:55:01.572Z,9.05
2018-12-22T12:56:01.562Z,9.08
2018-12-22T12:57:01.558Z,8.96
2018-12-22T12:58:01.541Z,8.96
2018-12-22T12:59:01.536Z,8.95
2018-12-22T13:00:01.532Z,8.95
2018-12-22T13:01:01.512Z,8.84
2018-12-22T13:02:06.035Z,8.83
2018-12-22T13:03:01.490Z,8.77
2018-12-22T13:04:01.474Z,8.83
2018-12-22T13:05:01.469Z,8.79
2018-12-22T13:06:01.459Z,8.68
2018-12-22T13:07:01.451Z,8.83
2018-12-22T13:08:01.437Z,8.77
2018-12-22T13:09:01.456Z,8.76
2018-12-22T13:10:01.412Z,8.74
2018-12-22T13:11:01.408Z,8.8
2018-12-22T13:12:01.391Z,8.74